sensor_id;sensor_type;location;lat;lon;timestamp;pressure;altitude;pressure_sealevel;temperature;humidity
6528;BME280;3297;42.664;23.256;2022-07-25T00:00:17;50350.59;;;-139.84;58.16
6528;BME280;3297;42.664;23.256;2022-07-25T00:02:42;50348.66;;;-139.84;57.80
6528;BME280;3297;42.664;23.256;2022-07-25T00:05:08;50342.81;;;-139.84;57.94
6528;BME280;3297;42.664;23.256;2022-07-25T00:07:34;50358.38;;;-139.84;57.98
6528;BME280;3297;42.664;23.256;2022-07-25T00:09:59;50327.28;;;-139.84;57.83
6528;BME280;3297;42.664;23.256;2022-07-25T00:12:25;50352.53;;;-139.84;57.80
6528;BME280;3297;42.664;23.256;2022-07-25T00:14:51;50327.28;;;-139.84;57.99
6528;BME280;3297;42.664;23.256;2022-07-25T00:17:16;50375.88;;;-139.84;58.31
6528;BME280;3297;42.664;23.256;2022-07-25T00:19:42;50338.94;;;-139.84;58.39
6528;BME280;3297;42.664;23.256;2022-07-25T00:22:07;50354.47;;;-139.84;58.55
6528;BME280;3297;42.664;23.256;2022-07-25T00:24:33;50335.06;;;-139.84;58.72
6528;BME280;3297;42.664;23.256;2022-07-25T00:26:59;50327.28;;;-139.84;58.48
6528;BME280;3297;42.664;23.256;2022-07-25T00:29:24;50350.59;;;-139.84;58.55
6528;BME280;3297;42.664;23.256;2022-07-25T00:31:50;50383.63;;;-139.84;58.97
6528;BME280;3297;42.664;23.256;2022-07-25T00:34:15;50327.28;;;-139.84;59.24
6528;BME280;3297;42.664;23.256;2022-07-25T00:36:41;50342.81;;;-139.84;59.62
6528;BME280;3297;42.664;23.256;2022-07-25T00:39:06;50331.16;;;-139.84;60.33
6528;BME280;3297;42.664;23.256;2022-07-25T00:41:32;50362.25;;;-139.84;60.14
6528;BME280;3297;42.664;23.256;2022-07-25T00:43:58;50342.81;;;-139.84;60.47
6528;BME280;3297;42.664;23.256;2022-07-25T00:46:23;50315.63;;;-139.84;60.82
6528;BME280;3297;42.664;23.256;2022-07-25T00:48:49;50329.22;;;-139.84;60.60
6528;BME280;3297;42.664;23.256;2022-07-25T00:51:16;50342.81;;;-139.84;60.68
6528;BME280;3297;42.664;23.256;2022-07-25T00:53:42;50331.16;;;-139.84;61.16
6528;BME280;3297;42.664;23.256;2022-07-25T00:56:08;50354.47;;;-139.84;61.01
6528;BME280;3297;42.664;23.256;2022-07-25T00:58:34;50362.25;;;-139.84;60.96
6528;BME280;3297;42.664;23.256;2022-07-25T01:01:00;50311.72;;;-139.84;60.87
6528;BME280;3297;42.664;23.256;2022-07-25T01:03:27;50327.28;;;-139.84;60.93
6528;BME280;3297;42.664;23.256;2022-07-25T01:05:52;50338.94;;;-139.84;60.96
6528;BME280;3297;42.664;23.256;2022-07-25T01:08:19;50364.19;;;-139.84;61.37
6528;BME280;3297;42.664;23.256;2022-07-25T01:10:47;50300.06;;;-139.84;61.52
6528;BME280;3297;42.664;23.256;2022-07-25T01:13:13;50371.97;;;-139.84;61.66
6528;BME280;3297;42.664;23.256;2022-07-25T01:15:39;50335.06;;;-139.84;61.66
6528;BME280;3297;42.664;23.256;2022-07-25T01:18:05;50371.97;;;-139.84;61.83
6528;BME280;3297;42.664;23.256;2022-07-25T01:20:31;50362.25;;;-139.84;61.91
6528;BME280;3297;42.664;23.256;2022-07-25T01:22:58;50338.94;;;-139.84;61.75
6528;BME280;3297;42.664;23.256;2022-07-25T01:25:24;50329.22;;;-139.84;61.81
6528;BME280;3297;42.664;23.256;2022-07-25T01:27:52;50354.47;;;-139.84;61.65
6528;BME280;3297;42.664;23.256;2022-07-25T01:30:19;50373.91;;;-139.84;61.42
6528;BME280;3297;42.664;23.256;2022-07-25T01:32:46;50362.25;;;-139.84;61.42
6528;BME280;3297;42.664;23.256;2022-07-25T01:35:12;50348.66;;;-139.84;61.60
6528;BME280;3297;42.664;23.256;2022-07-25T01:37:38;50358.38;;;-139.84;61.42
6528;BME280;3297;42.664;23.256;2022-07-25T01:40:05;50350.59;;;-139.84;61.39
6528;BME280;3297;42.664;23.256;2022-07-25T01:42:31;50346.72;;;-139.84;60.93
6528;BME280;3297;42.664;23.256;2022-07-25T01:44:57;50350.59;;;-139.84;60.73
6528;BME280;3297;42.664;23.256;2022-07-25T01:47:22;50342.81;;;-139.84;60.54
6528;BME280;3297;42.664;23.256;2022-07-25T01:49:48;50371.97;;;-139.84;60.66
6528;BME280;3297;42.664;23.256;2022-07-25T01:52:13;50333.09;;;-139.84;60.57
6528;BME280;3297;42.664;23.256;2022-07-25T01:54:39;50377.81;;;-139.84;60.26
6528;BME280;3297;42.664;23.256;2022-07-25T01:57:06;50360.31;;;-139.84;60.43
6528;BME280;3297;42.664;23.256;2022-07-25T01:59:32;50358.38;;;-139.84;59.97
6528;BME280;3297;42.664;23.256;2022-07-25T02:01:58;50350.59;;;-139.84;59.94
6528;BME280;3297;42.664;23.256;2022-07-25T02:04:23;50350.59;;;-139.84;60.13
6528;BME280;3297;42.664;23.256;2022-07-25T02:06:49;50371.97;;;-139.84;59.94
6528;BME280;3297;42.664;23.256;2022-07-25T02:09:16;50370.03;;;-139.84;60.27
6528;BME280;3297;42.664;23.256;2022-07-25T02:11:42;50371.97;;;-139.84;60.20
6528;BME280;3297;42.664;23.256;2022-07-25T02:14:08;50379.75;;;-139.84;60.49
6528;BME280;3297;42.664;23.256;2022-07-25T02:16:33;50362.25;;;-139.84;60.49
6528;BME280;3297;42.664;23.256;2022-07-25T02:18:59;50311.72;;;-139.84;60.47
6528;BME280;3297;42.664;23.256;2022-07-25T02:21:24;50346.72;;;-139.84;60.57
6528;BME280;3297;42.664;23.256;2022-07-25T02:23:50;50348.66;;;-139.84;60.61
6528;BME280;3297;42.664;23.256;2022-07-25T02:26:15;50366.16;;;-139.84;60.82
6528;BME280;3297;42.664;23.256;2022-07-25T02:28:41;50358.38;;;-139.84;60.89
6528;BME280;3297;42.664;23.256;2022-07-25T02:31:07;50335.06;;;-139.84;61.28
6528;BME280;3297;42.664;23.256;2022-07-25T02:33:33;50346.72;;;-139.84;61.82
6528;BME280;3297;42.664;23.256;2022-07-25T02:35:58;50358.38;;;-139.84;61.85
6528;BME280;3297;42.664;23.256;2022-07-25T02:38:24;50338.94;;;-139.84;61.78
6528;BME280;3297;42.664;23.256;2022-07-25T02:40:51;50381.69;;;-139.84;61.93
6528;BME280;3297;42.664;23.256;2022-07-25T02:43:18;50377.81;;;-139.84;62.02
6528;BME280;3297;42.664;23.256;2022-07-25T02:45:44;50370.03;;;-139.84;62.23
6528;BME280;3297;42.664;23.256;2022-07-25T02:48:11;50358.38;;;-139.84;62.30
6528;BME280;3297;42.664;23.256;2022-07-25T02:50:37;50327.28;;;-139.84;62.77
6528;BME280;3297;42.664;23.256;2022-07-25T02:53:03;50358.38;;;-139.84;62.72
6528;BME280;3297;42.664;23.256;2022-07-25T02:55:29;50346.72;;;-139.84;63.23
6528;BME280;3297;42.664;23.256;2022-07-25T02:57:55;50338.94;;;-139.84;62.93
6528;BME280;3297;42.664;23.256;2022-07-25T03:00:20;50360.31;;;-139.84;63.22
6528;BME280;3297;42.664;23.256;2022-07-25T03:02:47;50358.38;;;-139.84;63.43
6528;BME280;3297;42.664;23.256;2022-07-25T03:05:13;50366.16;;;-139.84;63.12
6528;BME280;3297;42.664;23.256;2022-07-25T03:07:40;50356.44;;;-139.84;63.37
6528;BME280;3297;42.664;23.256;2022-07-25T03:10:07;50358.38;;;-139.84;63.21
6528;BME280;3297;42.664;23.256;2022-07-25T03:12:33;50337.00;;;-139.84;63.36
6528;BME280;3297;42.664;23.256;2022-07-25T03:15:00;50370.03;;;-139.84;63.37
6528;BME280;3297;42.664;23.256;2022-07-25T03:17:27;50379.75;;;-139.84;63.65
6528;BME280;3297;42.664;23.256;2022-07-25T03:19:53;50366.16;;;-139.84;63.71
6528;BME280;3297;42.664;23.256;2022-07-25T03:22:19;50338.94;;;-139.84;63.97
6528;BME280;3297;42.664;23.256;2022-07-25T03:24:45;50350.59;;;-139.84;64.30
6528;BME280;3297;42.664;23.256;2022-07-25T03:27:10;50335.06;;;-139.84;64.19
6528;BME280;3297;42.664;23.256;2022-07-25T03:29:36;50373.91;;;-139.84;63.70
6528;BME280;3297;42.664;23.256;2022-07-25T03:32:02;50362.25;;;-139.84;63.83
6528;BME280;3297;42.664;23.256;2022-07-25T03:34:29;50362.25;;;-139.84;63.07
6528;BME280;3297;42.664;23.256;2022-07-25T03:36:54;50377.81;;;-139.84;63.24
6528;BME280;3297;42.664;23.256;2022-07-25T03:39:20;50342.81;;;-139.84;63.17
6528;BME280;3297;42.664;23.256;2022-07-25T03:41:46;50397.25;;;-139.84;62.75
6528;BME280;3297;42.664;23.256;2022-07-25T03:44:12;50342.81;;;-139.84;63.28
6528;BME280;3297;42.664;23.256;2022-07-25T03:46:38;50358.38;;;-139.84;63.07
6528;BME280;3297;42.664;23.256;2022-07-25T03:49:04;50348.66;;;-139.84;62.63
6528;BME280;3297;42.664;23.256;2022-07-25T03:51:30;50327.28;;;-139.84;62.27
6528;BME280;3297;42.664;23.256;2022-07-25T03:53:55;50346.72;;;-139.84;62.50
6528;BME280;3297;42.664;23.256;2022-07-25T03:56:28;50366.16;;;-139.84;62.60
6528;BME280;3297;42.664;23.256;2022-07-25T03:58:54;50335.06;;;-139.84;62.61
6528;BME280;3297;42.664;23.256;2022-07-25T04:01:19;50370.03;;;-139.84;62.13
6528;BME280;3297;42.664;23.256;2022-07-25T04:03:45;50368.09;;;-139.84;61.94
6528;BME280;3297;42.664;23.256;2022-07-25T04:06:11;50393.34;;;-139.84;61.69
6528;BME280;3297;42.664;23.256;2022-07-25T04:08:37;50362.25;;;-139.84;61.60
6528;BME280;3297;42.664;23.256;2022-07-25T04:11:03;50366.16;;;-139.84;61.42
6528;BME280;3297;42.664;23.256;2022-07-25T04:13:28;50371.97;;;-139.84;61.26
6528;BME280;3297;42.664;23.256;2022-07-25T04:15:54;50356.44;;;-139.84;61.23
6528;BME280;3297;42.664;23.256;2022-07-25T04:18:20;50348.66;;;-139.84;60.66
6528;BME280;3297;42.664;23.256;2022-07-25T04:20:46;50362.25;;;-139.84;60.76
6528;BME280;3297;42.664;23.256;2022-07-25T04:23:11;50377.81;;;-139.84;60.70
6528;BME280;3297;42.664;23.256;2022-07-25T04:25:37;50391.41;;;-139.84;60.16
6528;BME280;3297;42.664;23.256;2022-07-25T04:28:03;50370.03;;;-139.84;59.95
6528;BME280;3297;42.664;23.256;2022-07-25T04:30:28;50366.16;;;-139.84;59.83
6528;BME280;3297;42.664;23.256;2022-07-25T04:32:54;50393.34;;;-139.84;59.64
6528;BME280;3297;42.664;23.256;2022-07-25T04:35:20;50377.81;;;-139.84;59.47
6528;BME280;3297;42.664;23.256;2022-07-25T04:37:47;50350.59;;;-139.84;59.56
6528;BME280;3297;42.664;23.256;2022-07-25T04:40:13;50360.31;;;-139.84;59.17
6528;BME280;3297;42.664;23.256;2022-07-25T04:42:38;50383.63;;;-139.84;58.96
6528;BME280;3297;42.664;23.256;2022-07-25T04:45:04;50401.13;;;-139.84;58.90
6528;BME280;3297;42.664;23.256;2022-07-25T04:47:29;50399.19;;;-139.84;58.62
6528;BME280;3297;42.664;23.256;2022-07-25T04:49:55;50373.91;;;-139.84;58.25
6528;BME280;3297;42.664;23.256;2022-07-25T04:52:21;50385.59;;;-139.84;58.18
6528;BME280;3297;42.664;23.256;2022-07-25T04:54:47;50459.44;;;-139.84;57.83
6528;BME280;3297;42.664;23.256;2022-07-25T04:57:12;50381.69;;;-139.84;58.18
6528;BME280;3297;42.664;23.256;2022-07-25T04:59:38;50416.69;;;-139.84;57.67
6528;BME280;3297;42.664;23.256;2022-07-25T05:02:03;50373.91;;;-139.84;57.05
6528;BME280;3297;42.664;23.256;2022-07-25T05:04:29;50358.38;;;-139.84;56.74
6528;BME280;3297;42.664;23.256;2022-07-25T05:06:55;50377.81;;;-139.84;56.18
6528;BME280;3297;42.664;23.256;2022-07-25T05:09:20;50420.56;;;-139.84;55.31
6528;BME280;3297;42.664;23.256;2022-07-25T05:11:46;50428.34;;;-139.84;54.99
6528;BME280;3297;42.664;23.256;2022-07-25T05:14:12;50362.25;;;-139.84;54.84
6528;BME280;3297;42.664;23.256;2022-07-25T05:16:38;50422.50;;;-139.84;54.83
6528;BME280;3297;42.664;23.256;2022-07-25T05:19:03;50428.34;;;-139.84;54.17
6528;BME280;3297;42.664;23.256;2022-07-25T05:21:29;50399.19;;;-139.84;53.20
6528;BME280;3297;42.664;23.256;2022-07-25T05:23:55;50424.47;;;-139.84;52.72
6528;BME280;3297;42.664;23.256;2022-07-25T05:26:20;50440.00;;;-139.84;52.56
6528;BME280;3297;42.664;23.256;2022-07-25T05:28:46;50410.84;;;-139.84;51.86
6528;BME280;3297;42.664;23.256;2022-07-25T05:31:11;50399.19;;;-139.84;50.73
6528;BME280;3297;42.664;23.256;2022-07-25T05:33:37;50434.19;;;-139.84;50.31
6528;BME280;3297;42.664;23.256;2022-07-25T05:36:03;50408.91;;;-139.84;49.48
6528;BME280;3297;42.664;23.256;2022-07-25T05:38:29;50447.78;;;-139.84;49.28
6528;BME280;3297;42.664;23.256;2022-07-25T05:40:55;50422.50;;;-139.84;48.90
6528;BME280;3297;42.664;23.256;2022-07-25T05:43:21;50424.47;;;-139.84;48.36
6528;BME280;3297;42.664;23.256;2022-07-25T05:45:46;50401.13;;;-139.84;48.44
6528;BME280;3297;42.664;23.256;2022-07-25T05:48:13;50395.31;;;-139.84;48.85
6528;BME280;3297;42.664;23.256;2022-07-25T05:50:39;50424.47;;;-139.84;48.50
6528;BME280;3297;42.664;23.256;2022-07-25T05:53:06;50399.19;;;-139.84;47.97
6528;BME280;3297;42.664;23.256;2022-07-25T05:55:32;50424.47;;;-139.84;47.78
6528;BME280;3297;42.664;23.256;2022-07-25T05:57:57;50447.78;;;-139.84;47.58
6528;BME280;3297;42.664;23.256;2022-07-25T06:00:23;50440.00;;;-139.84;46.68
6528;BME280;3297;42.664;23.256;2022-07-25T06:02:49;50424.47;;;-139.84;45.63
6528;BME280;3297;42.664;23.256;2022-07-25T06:05:15;50451.66;;;-139.84;44.83
6528;BME280;3297;42.664;23.256;2022-07-25T06:07:41;50436.13;;;-139.84;44.24
6528;BME280;3297;42.664;23.256;2022-07-25T06:10:07;50438.06;;;-139.84;43.96
6528;BME280;3297;42.664;23.256;2022-07-25T06:12:33;50486.66;;;-139.84;43.04
6528;BME280;3297;42.664;23.256;2022-07-25T06:14:59;50447.78;;;-139.84;41.95
6528;BME280;3297;42.664;23.256;2022-07-25T06:17:24;50471.09;;;-139.84;40.78
6528;BME280;3297;42.664;23.256;2022-07-25T06:19:50;50420.56;;;-139.84;40.46
6528;BME280;3297;42.664;23.256;2022-07-25T06:22:16;50451.66;;;-139.84;40.15
6528;BME280;3297;42.664;23.256;2022-07-25T06:24:44;50475.00;;;-139.84;39.01
6528;BME280;3297;42.664;23.256;2022-07-25T06:27:09;50490.53;;;-139.84;38.67
6528;BME280;3297;42.664;23.256;2022-07-25T06:29:36;50465.28;;;-139.84;37.85
6528;BME280;3297;42.664;23.256;2022-07-25T06:32:02;50447.78;;;-139.84;37.62
6528;BME280;3297;42.664;23.256;2022-07-25T06:34:29;50467.22;;;-139.84;36.31
6528;BME280;3297;42.664;23.256;2022-07-25T06:36:55;50471.09;;;-139.84;35.84
6528;BME280;3297;42.664;23.256;2022-07-25T06:39:22;50478.88;;;-139.84;35.50
6528;BME280;3297;42.664;23.256;2022-07-25T06:41:47;50473.03;;;-139.84;35.26
6528;BME280;3297;42.664;23.256;2022-07-25T06:44:13;50455.56;;;-139.84;34.45
6528;BME280;3297;42.664;23.256;2022-07-25T06:46:39;50465.28;;;-139.84;34.17
6528;BME280;3297;42.664;23.256;2022-07-25T06:49:04;50463.34;;;-139.84;33.83
6528;BME280;3297;42.664;23.256;2022-07-25T06:51:30;50403.06;;;-139.84;33.35
6528;BME280;3297;42.664;23.256;2022-07-25T06:53:56;50463.34;;;-139.84;33.19
6528;BME280;3297;42.664;23.256;2022-07-25T06:56:22;50451.66;;;-139.84;32.67
6528;BME280;3297;42.664;23.256;2022-07-25T06:58:48;50475.00;;;-139.84;32.91
6528;BME280;3297;42.664;23.256;2022-07-25T07:01:13;50432.22;;;-139.84;32.77
6528;BME280;3297;42.664;23.256;2022-07-25T07:03:39;50438.06;;;-139.84;32.37
6528;BME280;3297;42.664;23.256;2022-07-25T07:06:06;50420.56;;;-139.84;32.16
6528;BME280;3297;42.664;23.256;2022-07-25T07:08:33;50476.94;;;-139.84;31.99
6528;BME280;3297;42.664;23.256;2022-07-25T07:10:59;50424.47;;;-139.84;32.31
6528;BME280;3297;42.664;23.256;2022-07-25T07:13:25;50463.34;;;-139.84;31.54
6528;BME280;3297;42.664;23.256;2022-07-25T07:15:51;50560.50;;;-139.84;31.04
6528;BME280;3297;42.664;23.256;2022-07-25T07:18:18;50476.94;;;-139.84;30.49
6528;BME280;3297;42.664;23.256;2022-07-25T07:20:45;50443.91;;;-139.84;30.38
6528;BME280;3297;42.664;23.256;2022-07-25T07:23:12;50447.78;;;-139.84;30.16
6528;BME280;3297;42.664;23.256;2022-07-25T07:25:38;50432.22;;;-139.84;29.43
6528;BME280;3297;42.664;23.256;2022-07-25T07:28:03;50436.13;;;-139.84;29.01
6528;BME280;3297;42.664;23.256;2022-07-25T07:30:30;50426.41;;;-139.84;29.63
6528;BME280;3297;42.664;23.256;2022-07-25T07:32:55;50440.00;;;-139.84;28.99
6528;BME280;3297;42.664;23.256;2022-07-25T07:35:21;50453.59;;;-139.84;29.35
6528;BME280;3297;42.664;23.256;2022-07-25T07:37:47;50443.91;;;-139.84;29.92
6528;BME280;3297;42.664;23.256;2022-07-25T07:40:14;50428.34;;;-139.84;30.12
6528;BME280;3297;42.664;23.256;2022-07-25T07:42:40;50467.22;;;-139.84;30.30
6528;BME280;3297;42.664;23.256;2022-07-25T07:45:21;50430.28;;;-139.84;29.89
6528;BME280;3297;42.664;23.256;2022-07-25T07:47:48;50436.13;;;-139.84;29.51
6528;BME280;3297;42.664;23.256;2022-07-25T07:50:18;50441.94;;;-139.84;29.18
6528;BME280;3297;42.664;23.256;2022-07-25T07:52:45;50463.34;;;-139.84;29.36
6528;BME280;3297;42.664;23.256;2022-07-25T07:55:11;50438.06;;;-139.84;29.19
6528;BME280;3297;42.664;23.256;2022-07-25T07:57:56;50445.84;;;-139.84;29.64
6528;BME280;3297;42.664;23.256;2022-07-25T08:00:21;50438.06;;;-139.84;29.65
6528;BME280;3297;42.664;23.256;2022-07-25T08:02:49;50451.66;;;-139.84;29.84
6528;BME280;3297;42.664;23.256;2022-07-25T08:05:39;50430.28;;;-139.84;29.38
6528;BME280;3297;42.664;23.256;2022-07-25T08:08:06;50441.94;;;-139.84;29.40
6528;BME280;3297;42.664;23.256;2022-07-25T08:10:35;50449.72;;;-139.84;28.94
6528;BME280;3297;42.664;23.256;2022-07-25T08:13:02;50449.72;;;-139.84;28.33
6528;BME280;3297;42.664;23.256;2022-07-25T08:15:36;50432.22;;;-139.84;28.31
6528;BME280;3297;42.664;23.256;2022-07-25T08:18:01;50406.97;;;-139.84;28.26
6528;BME280;3297;42.664;23.256;2022-07-25T08:20:29;50471.09;;;-139.84;27.61
6528;BME280;3297;42.664;23.256;2022-07-25T08:22:55;50401.13;;;-139.84;28.39
6528;BME280;3297;42.664;23.256;2022-07-25T08:25:21;50434.19;;;-139.84;27.83
6528;BME280;3297;42.664;23.256;2022-07-25T08:27:47;50436.13;;;-139.84;27.95
6528;BME280;3297;42.664;23.256;2022-07-25T08:30:14;50424.47;;;-139.84;27.50
6528;BME280;3297;42.664;23.256;2022-07-25T08:32:50;50428.34;;;-139.84;28.02
6528;BME280;3297;42.664;23.256;2022-07-25T08:35:18;50447.78;;;-139.84;28.00
6528;BME280;3297;42.664;23.256;2022-07-25T08:37:44;50422.50;;;-139.84;27.48
6528;BME280;3297;42.664;23.256;2022-07-25T08:40:12;50420.56;;;-139.84;27.70
6528;BME280;3297;42.664;23.256;2022-07-25T08:42:38;50418.63;;;-139.84;27.58
6528;BME280;3297;42.664;23.256;2022-07-25T08:45:07;50451.66;;;-139.84;27.90
6528;BME280;3297;42.664;23.256;2022-07-25T08:47:35;50434.19;;;-139.84;27.61
6528;BME280;3297;42.664;23.256;2022-07-25T08:50:03;50426.41;;;-139.84;28.28
6528;BME280;3297;42.664;23.256;2022-07-25T08:52:30;50391.41;;;-139.84;28.36
6528;BME280;3297;42.664;23.256;2022-07-25T08:55:00;50405.03;;;-139.84;26.88
6528;BME280;3297;42.664;23.256;2022-07-25T08:57:27;50416.69;;;-139.84;26.90
6528;BME280;3297;42.664;23.256;2022-07-25T08:59:56;50408.91;;;-139.84;27.34
6528;BME280;3297;42.664;23.256;2022-07-25T09:02:27;50420.56;;;-139.84;27.14
6528;BME280;3297;42.664;23.256;2022-07-25T09:04:54;50401.13;;;-139.84;27.04
6528;BME280;3297;42.664;23.256;2022-07-25T09:07:34;50397.25;;;-139.84;25.97
6528;BME280;3297;42.664;23.256;2022-07-25T09:10:21;50418.63;;;-139.84;26.41
6528;BME280;3297;42.664;23.256;2022-07-25T09:13:06;50424.47;;;-139.84;26.60
6528;BME280;3297;42.664;23.256;2022-07-25T09:15:37;50441.94;;;-139.84;26.68
6528;BME280;3297;42.664;23.256;2022-07-25T09:18:05;50408.91;;;-139.84;26.20
6528;BME280;3297;42.664;23.256;2022-07-25T09:23:06;50420.56;;;-139.84;26.37
6528;BME280;3297;42.664;23.256;2022-07-25T09:25:32;50377.81;;;-139.84;26.33
6528;BME280;3297;42.664;23.256;2022-07-25T09:28:16;50418.63;;;-139.84;25.76
6528;BME280;3297;42.664;23.256;2022-07-25T09:30:53;50379.75;;;-139.84;25.50
6528;BME280;3297;42.664;23.256;2022-07-25T09:33:20;50422.50;;;-139.84;25.44
6528;BME280;3297;42.664;23.256;2022-07-25T09:35:46;50408.91;;;-139.84;26.16
6528;BME280;3297;42.664;23.256;2022-07-25T09:38:13;50406.97;;;-139.84;26.78
6528;BME280;3297;42.664;23.256;2022-07-25T09:40:40;50414.75;;;-139.84;26.66
6528;BME280;3297;42.664;23.256;2022-07-25T09:43:06;50383.63;;;-139.84;26.49
6528;BME280;3297;42.664;23.256;2022-07-25T09:45:32;50377.81;;;-139.84;26.33
6528;BME280;3297;42.664;23.256;2022-07-25T09:48:03;50405.03;;;-139.84;26.24
6528;BME280;3297;42.664;23.256;2022-07-25T09:50:31;50393.34;;;-139.84;26.36
6528;BME280;3297;42.664;23.256;2022-07-25T09:52:59;50436.13;;;-139.84;26.30
6528;BME280;3297;42.664;23.256;2022-07-25T09:55:27;50403.06;;;-139.84;26.63
6528;BME280;3297;42.664;23.256;2022-07-25T09:57:53;50430.28;;;-139.84;26.30
6528;BME280;3297;42.664;23.256;2022-07-25T10:00:21;50393.34;;;-139.84;27.10
6528;BME280;3297;42.664;23.256;2022-07-25T10:02:55;50412.78;;;-139.84;26.61
6528;BME280;3297;42.664;23.256;2022-07-25T10:08:09;50389.47;;;-139.84;26.18
6528;BME280;3297;42.664;23.256;2022-07-25T10:10:40;50405.03;;;-139.84;26.63
6528;BME280;3297;42.664;23.256;2022-07-25T10:13:11;50428.34;;;-139.84;26.68
6528;BME280;3297;42.664;23.256;2022-07-25T10:15:40;50385.59;;;-139.84;27.13
6528;BME280;3297;42.664;23.256;2022-07-25T10:18:06;50410.84;;;-139.84;26.72
6528;BME280;3297;42.664;23.256;2022-07-25T10:20:33;50362.25;;;-139.84;26.96
6528;BME280;3297;42.664;23.256;2022-07-25T10:22:59;50377.81;;;-139.84;27.15
6528;BME280;3297;42.664;23.256;2022-07-25T10:25:25;50434.19;;;-139.84;26.57
6528;BME280;3297;42.664;23.256;2022-07-25T10:27:52;50405.03;;;-139.84;26.09
6528;BME280;3297;42.664;23.256;2022-07-25T10:30:27;50370.03;;;-139.84;25.92
6528;BME280;3297;42.664;23.256;2022-07-25T10:32:57;50385.59;;;-139.84;26.15
6528;BME280;3297;42.664;23.256;2022-07-25T10:35:27;50412.78;;;-139.84;26.49
6528;BME280;3297;42.664;23.256;2022-07-25T10:37:56;50391.41;;;-139.84;26.22
6528;BME280;3297;42.664;23.256;2022-07-25T10:40:33;50397.25;;;-139.84;25.94
6528;BME280;3297;42.664;23.256;2022-07-25T10:43:21;50381.69;;;-139.84;25.94
6528;BME280;3297;42.664;23.256;2022-07-25T10:45:50;50391.41;;;-139.84;26.11
6528;BME280;3297;42.664;23.256;2022-07-25T10:48:25;50393.34;;;-139.84;25.83
6528;BME280;3297;42.664;23.256;2022-07-25T10:50:52;50393.34;;;-139.84;26.41
6528;BME280;3297;42.664;23.256;2022-07-25T10:53:50;50375.88;;;-139.84;26.72
6528;BME280;3297;42.664;23.256;2022-07-25T10:56:21;50362.25;;;-139.84;26.65
6528;BME280;3297;42.664;23.256;2022-07-25T10:58:57;50356.44;;;-139.84;26.51
6528;BME280;3297;42.664;23.256;2022-07-25T11:03:50;50373.91;;;-139.84;27.04
6528;BME280;3297;42.664;23.256;2022-07-25T11:06:27;50344.75;;;-139.84;26.76
6528;BME280;3297;42.664;23.256;2022-07-25T11:08:53;50405.03;;;-139.84;26.97
6528;BME280;3297;42.664;23.256;2022-07-25T11:11:42;50389.47;;;-139.84;26.28
6528;BME280;3297;42.664;23.256;2022-07-25T11:16:48;50373.91;;;-139.84;26.18
6528;BME280;3297;42.664;23.256;2022-07-25T11:19:25;50373.91;;;-139.84;26.11
6528;BME280;3297;42.664;23.256;2022-07-25T11:21:56;50393.34;;;-139.84;25.49
6528;BME280;3297;42.664;23.256;2022-07-25T11:24:43;50401.13;;;-139.84;25.39
6528;BME280;3297;42.664;23.256;2022-07-25T11:27:11;50377.81;;;-139.84;25.93
6528;BME280;3297;42.664;23.256;2022-07-25T11:29:38;50364.19;;;-139.84;25.37
6528;BME280;3297;42.664;23.256;2022-07-25T11:32:09;50373.91;;;-139.84;26.06
6528;BME280;3297;42.664;23.256;2022-07-25T11:34:39;50373.91;;;-139.84;26.70
6528;BME280;3297;42.664;23.256;2022-07-25T11:37:07;50375.88;;;-139.84;26.51
6528;BME280;3297;42.664;23.256;2022-07-25T11:39:35;50377.81;;;-139.84;26.37
6528;BME280;3297;42.664;23.256;2022-07-25T11:42:04;50370.03;;;-139.84;26.12
6528;BME280;3297;42.664;23.256;2022-07-25T11:44:47;50397.25;;;-139.84;26.05
6528;BME280;3297;42.664;23.256;2022-07-25T11:47:30;50377.81;;;-139.84;26.02
6528;BME280;3297;42.664;23.256;2022-07-25T11:50:01;50397.25;;;-139.84;26.33
6528;BME280;3297;42.664;23.256;2022-07-25T11:54:56;50381.69;;;-139.84;26.05
6528;BME280;3297;42.664;23.256;2022-07-25T11:57:33;50346.72;;;-139.84;25.54
6528;BME280;3297;42.664;23.256;2022-07-25T12:00:02;50381.69;;;-139.84;25.83
6528;BME280;3297;42.664;23.256;2022-07-25T12:02:33;50350.59;;;-139.84;27.26
6528;BME280;3297;42.664;23.256;2022-07-25T12:05:07;50383.63;;;-139.84;27.59
6528;BME280;3297;42.664;23.256;2022-07-25T12:07:44;50383.63;;;-139.84;28.16
6528;BME280;3297;42.664;23.256;2022-07-25T12:10:33;50370.03;;;-139.84;27.94
6528;BME280;3297;42.664;23.256;2022-07-25T12:13:00;50373.91;;;-139.84;28.39
6528;BME280;3297;42.664;23.256;2022-07-25T12:15:31;50362.25;;;-139.84;28.85
6528;BME280;3297;42.664;23.256;2022-07-25T12:17:57;50371.97;;;-139.84;28.00
6528;BME280;3297;42.664;23.256;2022-07-25T12:20:25;50383.63;;;-139.84;28.41
6528;BME280;3297;42.664;23.256;2022-07-25T12:22:53;50362.25;;;-139.84;28.35
6528;BME280;3297;42.664;23.256;2022-07-25T12:25:20;50362.25;;;-139.84;27.90
6528;BME280;3297;42.664;23.256;2022-07-25T12:27:46;50366.16;;;-139.84;28.46
6528;BME280;3297;42.664;23.256;2022-07-25T12:30:12;50356.44;;;-139.84;28.17
6528;BME280;3297;42.664;23.256;2022-07-25T12:32:39;50393.34;;;-139.84;28.64
6528;BME280;3297;42.664;23.256;2022-07-25T12:35:07;50373.91;;;-139.84;27.83
6528;BME280;3297;42.664;23.256;2022-07-25T12:37:33;50393.34;;;-139.84;28.75
6528;BME280;3297;42.664;23.256;2022-07-25T12:39:59;50362.25;;;-139.84;28.81
6528;BME280;3297;42.664;23.256;2022-07-25T12:42:25;50385.59;;;-139.84;29.10
6528;BME280;3297;42.664;23.256;2022-07-25T12:44:51;50358.38;;;-139.84;28.99
6528;BME280;3297;42.664;23.256;2022-07-25T12:47:17;50366.16;;;-139.84;29.61
6528;BME280;3297;42.664;23.256;2022-07-25T12:49:43;50406.97;;;-139.84;29.50
6528;BME280;3297;42.664;23.256;2022-07-25T12:52:08;50358.38;;;-139.84;28.59
6528;BME280;3297;42.664;23.256;2022-07-25T12:54:34;50362.25;;;-139.84;28.81
6528;BME280;3297;42.664;23.256;2022-07-25T12:57:00;50358.38;;;-139.84;29.68
6528;BME280;3297;42.664;23.256;2022-07-25T12:59:25;50358.38;;;-139.84;29.50
6528;BME280;3297;42.664;23.256;2022-07-25T13:01:51;50370.03;;;-139.84;30.54
6528;BME280;3297;42.664;23.256;2022-07-25T13:04:16;50371.97;;;-139.84;29.84